sensor_id;sensor_type;location;lat;lon;timestamp;temperature;humidity
83660;SHT30;73632;50.808;3.422;2024-01-06T00:01:48;6.57;90.86
83660;SHT30;73632;50.808;3.422;2024-01-06T00:04:14;6.63;90.73
83660;SHT30;73632;50.808;3.422;2024-01-06T00:06:39;6.66;90.60
83660;SHT30;73632;50.808;3.422;2024-01-06T00:09:05;6.66;90.46
83660;SHT30;73632;50.808;3.422;2024-01-06T00:11:30;6.70;90.38
83660;SHT30;73632;50.808;3.422;2024-01-06T00:13:56;6.66;90.38
83660;SHT30;73632;50.808;3.422;2024-01-06T00:16:21;6.62;90.49
83660;SHT30;73632;50.808;3.422;2024-01-06T00:18:47;6.59;90.49
83660;SHT30;73632;50.808;3.422;2024-01-06T00:21:13;6.65;90.71
83660;SHT30;73632;50.808;3.422;2024-01-06T00:23:40;6.59;90.64
83660;SHT30;73632;50.808;3.422;2024-01-06T00:26:05;6.53;90.88
83660;SHT30;73632;50.808;3.422;2024-01-06T00:28:31;6.48;91.11
83660;SHT30;73632;50.808;3.422;2024-01-06T00:30:56;6.54;90.83
83660;SHT30;73632;50.808;3.422;2024-01-06T00:33:22;6.56;90.68
83660;SHT30;73632;50.808;3.422;2024-01-06T00:35:47;6.59;90.85
83660;SHT30;73632;50.808;3.422;2024-01-06T00:38:12;6.65;90.53
83660;SHT30;73632;50.808;3.422;2024-01-06T00:40:38;6.57;90.79
83660;SHT30;73632;50.808;3.422;2024-01-06T00:43:04;6.57;90.76
83660;SHT30;73632;50.808;3.422;2024-01-06T00:45:29;6.66;90.47
83660;SHT30;73632;50.808;3.422;2024-01-06T00:47:56;6.60;90.82
83660;SHT30;73632;50.808;3.422;2024-01-06T00:50:21;6.57;91.13
83660;SHT30;73632;50.808;3.422;2024-01-06T00:52:47;6.65;90.86
83660;SHT30;73632;50.808;3.422;2024-01-06T00:55:12;6.63;90.77
83660;SHT30;73632;50.808;3.422;2024-01-06T00:57:37;6.66;90.81
83660;SHT30;73632;50.808;3.422;2024-01-06T01:00:04;6.76;90.38
83660;SHT30;73632;50.808;3.422;2024-01-06T01:02:31;6.79;90.27
83660;SHT30;73632;50.808;3.422;2024-01-06T01:04:56;6.68;90.52
83660;SHT30;73632;50.808;3.422;2024-01-06T01:07:22;6.63;90.72
83660;SHT30;73632;50.808;3.422;2024-01-06T01:09:48;6.62;90.87
83660;SHT30;73632;50.808;3.422;2024-01-06T01:12:13;6.56;91.14
83660;SHT30;73632;50.808;3.422;2024-01-06T01:14:39;6.63;90.81
83660;SHT30;73632;50.808;3.422;2024-01-06T01:17:04;6.59;90.70
83660;SHT30;73632;50.808;3.422;2024-01-06T01:19:30;6.65;90.79
83660;SHT30;73632;50.808;3.422;2024-01-06T01:21:55;6.69;90.70
83660;SHT30;73632;50.808;3.422;2024-01-06T01:24:24;6.70;90.39
83660;SHT30;73632;50.808;3.422;2024-01-06T01:26:50;6.70;90.52
83660;SHT30;73632;50.808;3.422;2024-01-06T01:29:16;6.75;90.23
83660;SHT30;73632;50.808;3.422;2024-01-06T01:31:41;6.65;90.56
83660;SHT30;73632;50.808;3.422;2024-01-06T01:34:07;6.70;90.36
83660;SHT30;73632;50.808;3.422;2024-01-06T01:36:33;6.68;90.36
83660;SHT30;73632;50.808;3.422;2024-01-06T01:38:58;6.62;90.57
83660;SHT30;73632;50.808;3.422;2024-01-06T01:41:24;6.59;90.52
83660;SHT30;73632;50.808;3.422;2024-01-06T01:43:50;6.54;90.40
83660;SHT30;73632;50.808;3.422;2024-01-06T01:46:25;6.62;90.12
83660;SHT30;73632;50.808;3.422;2024-01-06T01:48:50;6.57;90.28
83660;SHT30;73632;50.808;3.422;2024-01-06T01:51:17;6.53;90.45
83660;SHT30;73632;50.808;3.422;2024-01-06T01:53:44;6.60;90.31
83660;SHT30;73632;50.808;3.422;2024-01-06T01:56:09;6.56;90.36
83660;SHT30;73632;50.808;3.422;2024-01-06T01:58:36;6.60;90.32
83660;SHT30;73632;50.808;3.422;2024-01-06T02:01:02;6.65;90.19
83660;SHT30;73632;50.808;3.422;2024-01-06T02:03:30;6.66;90.14
83660;SHT30;73632;50.808;3.422;2024-01-06T02:05:55;6.65;90.11
83660;SHT30;73632;50.808;3.422;2024-01-06T02:08:21;6.66;90.12
83660;SHT30;73632;50.808;3.422;2024-01-06T02:10:46;6.72;89.83
83660;SHT30;73632;50.808;3.422;2024-01-06T02:13:12;6.65;89.98
83660;SHT30;73632;50.808;3.422;2024-01-06T02:15:38;6.69;90.11
83660;SHT30;73632;50.808;3.422;2024-01-06T02:18:04;6.69;90.25
83660;SHT30;73632;50.808;3.422;2024-01-06T02:20:30;6.68;90.28
83660;SHT30;73632;50.808;3.422;2024-01-06T02:22:56;6.68;90.43
83660;SHT30;73632;50.808;3.422;2024-01-06T02:25:24;6.70;90.34
83660;SHT30;73632;50.808;3.422;2024-01-06T02:27:49;6.75;90.21
83660;SHT30;73632;50.808;3.422;2024-01-06T02:30:14;6.80;89.67
83660;SHT30;73632;50.808;3.422;2024-01-06T02:32:40;6.89;89.61
83660;SHT30;73632;50.808;3.422;2024-01-06T02:35:06;6.77;90.02
83660;SHT30;73632;50.808;3.422;2024-01-06T02:37:32;6.73;90.30
83660;SHT30;73632;50.808;3.422;2024-01-06T02:39:57;6.72;90.37
83660;SHT30;73632;50.808;3.422;2024-01-06T02:42:22;6.68;90.53
83660;SHT30;73632;50.808;3.422;2024-01-06T02:44:49;6.68;90.50
83660;SHT30;73632;50.808;3.422;2024-01-06T02:47:14;6.68;90.40
83660;SHT30;73632;50.808;3.422;2024-01-06T02:49:40;6.68;90.38
83660;SHT30;73632;50.808;3.422;2024-01-06T02:52:05;6.76;90.30
83660;SHT30;73632;50.808;3.422;2024-01-06T02:54:31;6.80;90.29
83660;SHT30;73632;50.808;3.422;2024-01-06T02:56:56;6.68;90.29
83660;SHT30;73632;50.808;3.422;2024-01-06T02:59:21;6.70;90.37
83660;SHT30;73632;50.808;3.422;2024-01-06T03:01:47;6.72;90.21
83660;SHT30;73632;50.808;3.422;2024-01-06T03:04:13;6.75;90.12
83660;SHT30;73632;50.808;3.422;2024-01-06T03:06:38;6.76;90.19
83660;SHT30;73632;50.808;3.422;2024-01-06T03:09:03;6.75;90.21
83660;SHT30;73632;50.808;3.422;2024-01-06T03:11:29;6.70;90.56
83660;SHT30;73632;50.808;3.422;2024-01-06T03:13:54;6.69;90.49
83660;SHT30;73632;50.808;3.422;2024-01-06T03:16:20;6.72;90.45
83660;SHT30;73632;50.808;3.422;2024-01-06T03:18:45;6.68;90.80
83660;SHT30;73632;50.808;3.422;2024-01-06T03:21:19;6.69;90.90
83660;SHT30;73632;50.808;3.422;2024-01-06T03:23:46;6.69;90.83
83660;SHT30;73632;50.808;3.422;2024-01-06T03:26:11;6.69;90.61
83660;SHT30;73632;50.808;3.422;2024-01-06T03:28:37;6.69;90.65
83660;SHT30;73632;50.808;3.422;2024-01-06T03:31:03;6.73;90.69
83660;SHT30;73632;50.808;3.422;2024-01-06T03:33:28;6.68;90.63
83660;SHT30;73632;50.808;3.422;2024-01-06T03:35:54;6.69;90.72
83660;SHT30;73632;50.808;3.422;2024-01-06T03:38:19;6.59;90.69
83660;SHT30;73632;50.808;3.422;2024-01-06T03:40:44;6.65;90.51
83660;SHT30;73632;50.808;3.422;2024-01-06T03:43:10;6.69;90.31
83660;SHT30;73632;50.808;3.422;2024-01-06T03:45:35;6.70;90.32
83660;SHT30;73632;50.808;3.422;2024-01-06T03:48:01;6.73;89.85
83660;SHT30;73632;50.808;3.422;2024-01-06T03:50:26;6.70;90.00
83660;SHT30;73632;50.808;3.422;2024-01-06T03:52:51;6.80;89.51
83660;SHT30;73632;50.808;3.422;2024-01-06T03:55:17;6.72;89.55
83660;SHT30;73632;50.808;3.422;2024-01-06T03:57:42;6.72;89.69
83660;SHT30;73632;50.808;3.422;2024-01-06T04:00:08;6.73;89.52
83660;SHT30;73632;50.808;3.422;2024-01-06T04:02:34;6.72;89.45
83660;SHT30;73632;50.808;3.422;2024-01-06T04:04:59;6.75;89.38
83660;SHT30;73632;50.808;3.422;2024-01-06T04:07:24;6.73;89.39
83660;SHT30;73632;50.808;3.422;2024-01-06T04:09:50;6.77;88.93
83660;SHT30;73632;50.808;3.422;2024-01-06T04:12:15;6.76;89.02
83660;SHT30;73632;50.808;3.422;2024-01-06T04:14:41;6.72;88.78
83660;SHT30;73632;50.808;3.422;2024-01-06T04:17:06;6.73;88.95
83660;SHT30;73632;50.808;3.422;2024-01-06T04:19:32;6.72;88.90
83660;SHT30;73632;50.808;3.422;2024-01-06T04:21:57;6.72;88.50
83660;SHT30;73632;50.808;3.422;2024-01-06T04:24:23;6.72;88.52
83660;SHT30;73632;50.808;3.422;2024-01-06T04:26:50;6.66;88.65
83660;SHT30;73632;50.808;3.422;2024-01-06T04:29:15;6.66;88.93
83660;SHT30;73632;50.808;3.422;2024-01-06T04:31:41;6.62;88.96
83660;SHT30;73632;50.808;3.422;2024-01-06T04:34:06;6.75;88.39
83660;SHT30;73632;50.808;3.422;2024-01-06T04:36:32;6.72;88.47
83660;SHT30;73632;50.808;3.422;2024-01-06T04:38:57;6.68;88.38
83660;SHT30;73632;50.808;3.422;2024-01-06T04:41:23;6.72;88.42
83660;SHT30;73632;50.808;3.422;2024-01-06T04:43:48;6.60;88.69
83660;SHT30;73632;50.808;3.422;2024-01-06T04:46:13;6.72;87.84
83660;SHT30;73632;50.808;3.422;2024-01-06T04:48:41;6.66;88.19
83660;SHT30;73632;50.808;3.422;2024-01-06T04:51:07;6.66;88.05
83660;SHT30;73632;50.808;3.422;2024-01-06T04:53:35;6.62;88.16
83660;SHT30;73632;50.808;3.422;2024-01-06T04:56:01;6.65;88.02
83660;SHT30;73632;50.808;3.422;2024-01-06T04:58:27;6.62;87.95
83660;SHT30;73632;50.808;3.422;2024-01-06T05:00:52;6.62;87.90
83660;SHT30;73632;50.808;3.422;2024-01-06T05:03:18;6.59;88.12
83660;SHT30;73632;50.808;3.422;2024-01-06T05:05:43;6.57;88.11
83660;SHT30;73632;50.808;3.422;2024-01-06T05:08:09;6.54;88.29
83660;SHT30;73632;50.808;3.422;2024-01-06T05:10:34;6.57;88.04
83660;SHT30;73632;50.808;3.422;2024-01-06T05:12:59;6.57;88.21
83660;SHT30;73632;50.808;3.422;2024-01-06T05:15:25;6.56;87.94
83660;SHT30;73632;50.808;3.422;2024-01-06T05:17:50;6.53;88.15
83660;SHT30;73632;50.808;3.422;2024-01-06T05:20:16;6.57;88.16
83660;SHT30;73632;50.808;3.422;2024-01-06T05:22:41;6.49;88.60
83660;SHT30;73632;50.808;3.422;2024-01-06T05:25:07;6.50;88.41
83660;SHT30;73632;50.808;3.422;2024-01-06T05:27:32;6.56;88.47
83660;SHT30;73632;50.808;3.422;2024-01-06T05:29:58;6.57;88.22
83660;SHT30;73632;50.808;3.422;2024-01-06T05:32:23;6.54;88.51
83660;SHT30;73632;50.808;3.422;2024-01-06T05:34:49;6.56;88.62
83660;SHT30;73632;50.808;3.422;2024-01-06T05:37:14;6.56;88.62
83660;SHT30;73632;50.808;3.422;2024-01-06T05:39:40;6.60;88.68
83660;SHT30;73632;50.808;3.422;2024-01-06T05:42:06;6.56;88.60
83660;SHT30;73632;50.808;3.422;2024-01-06T05:44:35;6.54;88.80
83660;SHT30;73632;50.808;3.422;2024-01-06T05:47:00;6.54;88.92
83660;SHT30;73632;50.808;3.422;2024-01-06T05:49:26;6.54;89.20
83660;SHT30;73632;50.808;3.422;2024-01-06T05:51:51;6.53;89.14
83660;SHT30;73632;50.808;3.422;2024-01-06T05:54:17;6.50;89.14
83660;SHT30;73632;50.808;3.422;2024-01-06T05:56:42;6.53;89.32
83660;SHT30;73632;50.808;3.422;2024-01-06T05:59:08;6.57;89.19
83660;SHT30;73632;50.808;3.422;2024-01-06T06:01:33;6.56;89.26
83660;SHT30;73632;50.808;3.422;2024-01-06T06:03:59;6.57;89.34
83660;SHT30;73632;50.808;3.422;2024-01-06T06:06:24;6.50;89.47
83660;SHT30;73632;50.808;3.422;2024-01-06T06:08:49;6.52;89.89
83660;SHT30;73632;50.808;3.422;2024-01-06T06:11:15;6.45;90.07
83660;SHT30;73632;50.808;3.422;2024-01-06T06:13:40;6.39;90.53
83660;SHT30;73632;50.808;3.422;2024-01-06T06:16:08;6.49;90.12
83660;SHT30;73632;50.808;3.422;2024-01-06T06:18:34;6.43;90.37
83660;SHT30;73632;50.808;3.422;2024-01-06T06:21:00;6.40;90.64
83660;SHT30;73632;50.808;3.422;2024-01-06T06:23:28;6.43;90.49
83660;SHT30;73632;50.808;3.422;2024-01-06T06:25:54;6.52;90.10
83660;SHT30;73632;50.808;3.422;2024-01-06T06:28:19;6.49;90.22
83660;SHT30;73632;50.808;3.422;2024-01-06T06:30:45;6.50;90.22
83660;SHT30;73632;50.808;3.422;2024-01-06T06:33:10;6.43;90.42
83660;SHT30;73632;50.808;3.422;2024-01-06T06:35:35;6.42;90.66
83660;SHT30;73632;50.808;3.422;2024-01-06T06:38:01;6.43;90.66
83660;SHT30;73632;50.808;3.422;2024-01-06T06:40:26;6.40;90.57
83660;SHT30;73632;50.808;3.422;2024-01-06T06:42:52;6.42;90.60
83660;SHT30;73632;50.808;3.422;2024-01-06T06:45:17;6.46;90.36
83660;SHT30;73632;50.808;3.422;2024-01-06T06:47:45;6.45;90.45
83660;SHT30;73632;50.808;3.422;2024-01-06T06:50:11;6.42;90.57
83660;SHT30;73632;50.808;3.422;2024-01-06T06:52:36;6.46;90.29
83660;SHT30;73632;50.808;3.422;2024-01-06T06:55:02;6.40;90.55
83660;SHT30;73632;50.808;3.422;2024-01-06T06:57:27;6.45;90.20
83660;SHT30;73632;50.808;3.422;2024-01-06T06:59:53;6.46;90.25
83660;SHT30;73632;50.808;3.422;2024-01-06T07:02:18;6.46;90.17
83660;SHT30;73632;50.808;3.422;2024-01-06T07:04:43;6.46;90.18
83660;SHT30;73632;50.808;3.422;2024-01-06T07:07:09;6.43;90.16
83660;SHT30;73632;50.808;3.422;2024-01-06T07:09:34;6.42;90.19
83660;SHT30;73632;50.808;3.422;2024-01-06T07:12:00;6.39;90.27
83660;SHT30;73632;50.808;3.422;2024-01-06T07:14:25;6.43;90.01
83660;SHT30;73632;50.808;3.422;2024-01-06T07:16:50;6.40;90.20
83660;SHT30;73632;50.808;3.422;2024-01-06T07:19:16;6.43;89.97
83660;SHT30;73632;50.808;3.422;2024-01-06T07:21:41;6.48;89.99
83660;SHT30;73632;50.808;3.422;2024-01-06T07:24:07;6.49;89.68
83660;SHT30;73632;50.808;3.422;2024-01-06T07:26:32;6.46;90.10
83660;SHT30;73632;50.808;3.422;2024-01-06T07:28:58;6.42;90.29
83660;SHT30;73632;50.808;3.422;2024-01-06T07:31:23;6.46;90.22
83660;SHT30;73632;50.808;3.422;2024-01-06T07:33:48;6.46;90.28
83660;SHT30;73632;50.808;3.422;2024-01-06T07:36:14;6.43;90.49
83660;SHT30;73632;50.808;3.422;2024-01-06T07:38:39;6.45;90.67
83660;SHT30;73632;50.808;3.422;2024-01-06T07:41:06;6.46;90.82
83660;SHT30;73632;50.808;3.422;2024-01-06T07:43:32;6.54;90.71
83660;SHT30;73632;50.808;3.422;2024-01-06T07:45:57;6.59;90.49
83660;SHT30;73632;50.808;3.422;2024-01-06T07:48:22;6.54;90.78
83660;SHT30;73632;50.808;3.422;2024-01-06T07:50:48;6.45;90.93
83660;SHT30;73632;50.808;3.422;2024-01-06T07:53:13;6.54;90.74
83660;SHT30;73632;50.808;3.422;2024-01-06T07:55:40;6.52;90.73
83660;SHT30;73632;50.808;3.422;2024-01-06T07:58:05;6.50;90.80
83660;SHT30;73632;50.808;3.422;2024-01-06T08:00:31;6.52;91.04
83660;SHT30;73632;50.808;3.422;2024-01-06T08:02:56;6.50;90.90
83660;SHT30;73632;50.808;3.422;2024-01-06T08:05:22;6.49;91.04
83660;SHT30;73632;50.808;3.422;2024-01-06T08:07:47;6.43;91.13
83660;SHT30;73632;50.808;3.422;2024-01-06T08:10:13;6.45;91.19
83660;SHT30;73632;50.808;3.422;2024-01-06T08:12:38;6.45;91.42
83660;SHT30;73632;50.808;3.422;2024-01-06T08:15:04;6.45;91.18
83660;SHT30;73632;50.808;3.422;2024-01-06T08:17:30;6.49;90.80
83660;SHT30;73632;50.808;3.422;2024-01-06T08:19:55;6.43;90.73
83660;SHT30;73632;50.808;3.422;2024-01-06T08:22:20;6.50;90.47
83660;SHT30;73632;50.808;3.422;2024-01-06T08:24:46;6.49;90.58
83660;SHT30;73632;50.808;3.422;2024-01-06T08:27:12;6.40;90.81
83660;SHT30;73632;50.808;3.422;2024-01-06T08:29:38;6.39;90.89
83660;SHT30;73632;50.808;3.422;2024-01-06T08:32:04;6.39;91.02
83660;SHT30;73632;50.808;3.422;2024-01-06T08:34:29;6.36;91.16
83660;SHT30;73632;50.808;3.422;2024-01-06T08:36:55;6.36;91.40
83660;SHT30;73632;50.808;3.422;2024-01-06T08:39:20;6.40;91.18
83660;SHT30;73632;50.808;3.422;2024-01-06T08:41:47;6.39;91.24
83660;SHT30;73632;50.808;3.422;2024-01-06T08:44:13;6.46;91.13
83660;SHT30;73632;50.808;3.422;2024-01-06T08:46:38;6.45;90.96
83660;SHT30;73632;50.808;3.422;2024-01-06T08:49:05;6.39;91.14
83660;SHT30;73632;50.808;3.422;2024-01-06T08:51:30;6.36;91.28
83660;SHT30;73632;50.808;3.422;2024-01-06T08:53:56;6.39;91.31
83660;SHT30;73632;50.808;3.422;2024-01-06T08:56:22;6.48;91.01
83660;SHT30;73632;50.808;3.422;2024-01-06T08:58:47;6.43;91.16
83660;SHT30;73632;50.808;3.422;2024-01-06T09:01:12;6.43;91.22
83660;SHT30;73632;50.808;3.422;2024-01-06T09:03:39;6.42;91.30
83660;SHT30;73632;50.808;3.422;2024-01-06T09:06:04;6.49;91.23
83660;SHT30;73632;50.808;3.422;2024-01-06T09:08:30;6.49;91.24
83660;SHT30;73632;50.808;3.422;2024-01-06T09:10:55;6.49;91.14
83660;SHT30;73632;50.808;3.422;2024-01-06T09:13:22;6.53;91.17
83660;SHT30;73632;50.808;3.422;2024-01-06T09:15:49;6.48;91.07
83660;SHT30;73632;50.808;3.422;2024-01-06T09:18:16;6.48;91.22
83660;SHT30;73632;50.808;3.422;2024-01-06T09:20:41;6.52;90.31
83660;SHT30;73632;50.808;3.422;2024-01-06T09:23:07;6.53;90.40
83660;SHT30;73632;50.808;3.422;2024-01-06T09:25:32;6.48;89.76
83660;SHT30;73632;50.808;3.422;2024-01-06T09:27:57;6.45;89.95
83660;SHT30;73632;50.808;3.422;2024-01-06T09:30:24;6.39;90.09
83660;SHT30;73632;50.808;3.422;2024-01-06T09:32:51;6.33;90.11
83660;SHT30;73632;50.808;3.422;2024-01-06T09:35:16;6.35;89.88
83660;SHT30;73632;50.808;3.422;2024-01-06T09:37:41;6.36;89.85
83660;SHT30;73632;50.808;3.422;2024-01-06T09:40:11;6.42;89.83
83660;SHT30;73632;50.808;3.422;2024-01-06T09:42:38;6.48;89.28
83660;SHT30;73632;50.808;3.422;2024-01-06T09:45:04;6.50;88.42
83660;SHT30;73632;50.808;3.422;2024-01-06T09:47:33;6.54;88.83
83660;SHT30;73632;50.808;3.422;2024-01-06T09:50:01;6.56;88.80
83660;SHT30;73632;50.808;3.422;2024-01-06T09:52:28;6.49;89.23
83660;SHT30;73632;50.808;3.422;2024-01-06T09:54:56;6.54;89.16
83660;SHT30;73632;50.808;3.422;2024-01-06T09:57:23;6.60;89.17
83660;SHT30;73632;50.808;3.422;2024-01-06T09:59:48;6.50;89.67
83660;SHT30;73632;50.808;3.422;2024-01-06T10:02:15;6.60;88.55
83660;SHT30;73632;50.808;3.422;2024-01-06T10:04:43;6.60;88.65
83660;SHT30;73632;50.808;3.422;2024-01-06T10:07:09;6.69;87.60
83660;SHT30;73632;50.808;3.422;2024-01-06T10:09:37;6.63;88.43
83660;SHT30;73632;50.808;3.422;2024-01-06T10:12:03;6.70;87.78
83660;SHT30;73632;50.808;3.422;2024-01-06T10:14:29;6.62;87.61
83660;SHT30;73632;50.808;3.422;2024-01-06T10:16:54;6.60;87.41
83660;SHT30;73632;50.808;3.422;2024-01-06T10:19:20;6.57;87.69
83660;SHT30;73632;50.808;3.422;2024-01-06T10:21:46;6.59;87.60
83660;SHT30;73632;50.808;3.422;2024-01-06T10:24:11;6.54;87.79
83660;SHT30;73632;50.808;3.422;2024-01-06T10:26:37;6.54;87.58
83660;SHT30;73632;50.808;3.422;2024-01-06T10:29:03;6.63;87.51
83660;SHT30;73632;50.808;3.422;2024-01-06T10:31:29;6.63;87.63
83660;SHT30;73632;50.808;3.422;2024-01-06T10:33:55;6.60;87.54
83660;SHT30;73632;50.808;3.422;2024-01-06T10:36:23;6.66;87.85
83660;SHT30;73632;50.808;3.422;2024-01-06T10:38:57;6.69;88.05
83660;SHT30;73632;50.808;3.422;2024-01-06T10:41:23;6.69;88.16
83660;SHT30;73632;50.808;3.422;2024-01-06T10:43:50;6.77;87.50
83660;SHT30;73632;50.808;3.422;2024-01-06T10:46:18;6.79;87.21
83660;SHT30;73632;50.808;3.422;2024-01-06T10:48:44;6.77;87.63
83660;SHT30;73632;50.808;3.422;2024-01-06T10:51:12;6.77;87.16
83660;SHT30;73632;50.808;3.422;2024-01-06T10:53:40;6.75;87.71
83660;SHT30;73632;50.808;3.422;2024-01-06T10:56:07;6.77;87.18
83660;SHT30;73632;50.808;3.422;2024-01-06T10:58:36;6.77;87.80
83660;SHT30;73632;50.808;3.422;2024-01-06T11:01:09;6.84;87.55
83660;SHT30;73632;50.808;3.422;2024-01-06T11:03:38;6.91;86.68
83660;SHT30;73632;50.808;3.422;2024-01-06T11:06:06;6.97;86.76
83660;SHT30;73632;50.808;3.422;2024-01-06T11:08:35;6.96;86.31
83660;SHT30;73632;50.808;3.422;2024-01-06T11:11:02;6.97;87.13
83660;SHT30;73632;50.808;3.422;2024-01-06T11:13:27;6.94;87.78
83660;SHT30;73632;50.808;3.422;2024-01-06T11:15:54;7.01;87.21
83660;SHT30;73632;50.808;3.422;2024-01-06T11:18:36;7.05;86.42
83660;SHT30;73632;50.808;3.422;2024-01-06T11:23:42;6.94;85.53
83660;SHT30;73632;50.808;3.422;2024-01-06T11:26:09;6.81;86.09
83660;SHT30;73632;50.808;3.422;2024-01-06T11:28:47;6.81;84.71
83660;SHT30;73632;50.808;3.422;2024-01-06T11:31:13;6.52;83.56
83660;SHT30;73632;50.808;3.422;2024-01-06T11:33:45;6.36;84.52
83660;SHT30;73632;50.808;3.422;2024-01-06T11:36:14;6.28;84.89
83660;SHT30;73632;50.808;3.422;2024-01-06T11:38:40;6.11;85.72
83660;SHT30;73632;50.808;3.422;2024-01-06T11:41:10;6.02;85.88
83660;SHT30;73632;50.808;3.422;2024-01-06T11:43:38;6.08;85.97
83660;SHT30;73632;50.808;3.422;2024-01-06T11:46:05;6.06;86.46
83660;SHT30;73632;50.808;3.422;2024-01-06T11:48:32;6.24;86.27
83660;SHT30;73632;50.808;3.422;2024-01-06T11:50:58;6.24;86.49
83660;SHT30;73632;50.808;3.422;2024-01-06T11:53:26;6.29;86.29
83660;SHT30;73632;50.808;3.422;2024-01-06T11:55:52;6.26;86.05
83660;SHT30;73632;50.808;3.422;2024-01-06T11:58:17;6.33;85.30
83660;SHT30;73632;50.808;3.422;2024-01-06T12:00:43;6.25;86.09
83660;SHT30;73632;50.808;3.422;2024-01-06T12:03:09;6.35;85.24
83660;SHT30;73632;50.808;3.422;2024-01-06T12:05:35;6.35;85.22
83660;SHT30;73632;50.808;3.422;2024-01-06T12:08:03;6.32;85.24
83660;SHT30;73632;50.808;3.422;2024-01-06T12:10:31;6.45;84.80
83660;SHT30;73632;50.808;3.422;2024-01-06T12:13:01;6.46;85.10
83660;SHT30;73632;50.808;3.422;2024-01-06T12:15:28;6.52;84.70
83660;SHT30;73632;50.808;3.422;2024-01-06T12:17:54;6.65;83.32
83660;SHT30;73632;50.808;3.422;2024-01-06T12:20:21;6.68;83.73
83660;SHT30;73632;50.808;3.422;2024-01-06T12:22:46;6.73;82.85
83660;SHT30;73632;50.808;3.422;2024-01-06T12:25:12;6.77;82.73
83660;SHT30;73632;50.808;3.422;2024-01-06T12:27:44;6.76;81.95
83660;SHT30;73632;50.808;3.422;2024-01-06T12:30:18;6.75;82.95
83660;SHT30;73632;50.808;3.422;2024-01-06T12:32:47;6.86;83.56
83660;SHT30;73632;50.808;3.422;2024-01-06T12:35:14;6.87;83.15
83660;SHT30;73632;50.808;3.422;2024-01-06T12:37:42;6.81;82.56
83660;SHT30;73632;50.808;3.422;2024-01-06T12:40:15;6.86;83.15
83660;SHT30;73632;50.808;3.422;2024-01-06T12:42:45;6.91;81.53
83660;SHT30;73632;50.808;3.422;2024-01-06T12:45:10;6.99;82.80
83660;SHT30;73632;50.808;3.422;2024-01-06T12:47:36;6.97;81.01
83660;SHT30;73632;50.808;3.422;2024-01-06T12:50:03;7.00;81.49
83660;SHT30;73632;50.808;3.422;2024-01-06T12:52:29;7.11;81.55
83660;SHT30;73632;50.808;3.422;2024-01-06T12:54:55;6.99;82.66
83660;SHT30;73632;50.808;3.422;2024-01-06T12:57:20;7.00;82.13
83660;SHT30;73632;50.808;3.422;2024-01-06T12:59:46;7.04;81.86
83660;SHT30;73632;50.808;3.422;2024-01-06T13:02:11;7.04;82.44
83660;SHT30;73632;50.808;3.422;2024-01-06T13:04:37;7.00;82.15
83660;SHT30;73632;50.808;3.422;2024-01-06T13:07:02;7.05;80.80
83660;SHT30;73632;50.808;3.422;2024-01-06T13:09:28;7.07;81.30
83660;SHT30;73632;50.808;3.422;2024-01-06T13:11:53;7.08;80.65
83660;SHT30;73632;50.808;3.422;2024-01-06T13:14:21;7.10;80.00
83660;SHT30;73632;50.808;3.422;2024-01-06T13:16:46;7.05;80.34
83660;SHT30;73632;50.808;3.422;2024-01-06T13:19:12;7.08;80.45
83660;SHT30;73632;50.808;3.422;2024-01-06T13:21:37;7.11;79.46
83660;SHT30;73632;50.808;3.422;2024-01-06T13:24:07;7.10;78.37
83660;SHT30;73632;50.808;3.422;2024-01-06T13:26:33;7.01;78.38
83660;SHT30;73632;50.808;3.422;2024-01-06T13:28:59;7.05;79.25
83660;SHT30;73632;50.808;3.422;2024-01-06T13:31:24;7.04;78.82
83660;SHT30;73632;50.808;3.422;2024-01-06T13:33:50;7.21;78.29
83660;SHT30;73632;50.808;3.422;2024-01-06T13:36:21;7.11;77.38
83660;SHT30;73632;50.808;3.422;2024-01-06T13:38:47;7.03;78.09
83660;SHT30;73632;50.808;3.422;2024-01-06T13:41:14;7.07;78.32
83660;SHT30;73632;50.808;3.422;2024-01-06T13:43:39;7.00;79.11
83660;SHT30;73632;50.808;3.422;2024-01-06T13:46:05;6.99;78.71
83660;SHT30;73632;50.808;3.422;2024-01-06T13:48:30;6.97;79.57
83660;SHT30;73632;50.808;3.422;2024-01-06T13:50:56;6.93;79.47
83660;SHT30;73632;50.808;3.422;2024-01-06T13:53:22;6.93;79.47
83660;SHT30;73632;50.808;3.422;2024-01-06T13:55:48;7.03;79.30
83660;SHT30;73632;50.808;3.422;2024-01-06T13:58:13;6.94;79.81
83660;SHT30;73632;50.808;3.422;2024-01-06T14:00:39;6.91;78.50
83660;SHT30;73632;50.808;3.422;2024-01-06T14:03:06;6.86;78.77
83660;SHT30;73632;50.808;3.422;2024-01-06T14:05:34;6.90;79.06
83660;SHT30;73632;50.808;3.422;2024-01-06T14:08:00;6.89;79.91
83660;SHT30;73632;50.808;3.422;2024-01-06T14:10:25;6.81;80.51
83660;SHT30;73632;50.808;3.422;2024-01-06T14:12:53;6.83;80.26
83660;SHT30;73632;50.808;3.422;2024-01-06T14:15:18;6.77;79.90
83660;SHT30;73632;50.808;3.422;2024-01-06T14:17:44;6.77;79.04
83660;SHT30;73632;50.808;3.422;2024-01-06T14:20:14;6.76;79.47
83660;SHT30;73632;50.808;3.422;2024-01-06T14:22:43;6.65;79.65
83660;SHT30;73632;50.808;3.422;2024-01-06T14:25:09;6.63;78.74
83660;SHT30;73632;50.808;3.422;2024-01-06T14:27:34;6.62;78.82
83660;SHT30;73632;50.808;3.422;2024-01-06T14:29:59;6.65;79.54
83660;SHT30;73632;50.808;3.422;2024-01-06T14:32:25;6.65;79.36
83660;SHT30;73632;50.808;3.422;2024-01-06T14:34:50;6.60;80.15
83660;SHT30;73632;50.808;3.422;2024-01-06T14:37:16;6.50;80.68
83660;SHT30;73632;50.808;3.422;2024-01-06T14:39:41;6.60;80.91
83660;SHT30;73632;50.808;3.422;2024-01-06T14:42:07;6.63;80.46
83660;SHT30;73632;50.808;3.422;2024-01-06T14:44:32;6.68;80.08
83660;SHT30;73632;50.808;3.422;2024-01-06T14:46:58;6.63;80.27
83660;SHT30;73632;50.808;3.422;2024-01-06T14:49:23;6.65;80.13
83660;SHT30;73632;50.808;3.422;2024-01-06T14:51:49;6.62;80.51
83660;SHT30;73632;50.808;3.422;2024-01-06T14:54:14;6.59;79.80
83660;SHT30;73632;50.808;3.422;2024-01-06T14:56:40;6.57;80.45
83660;SHT30;73632;50.808;3.422;2024-01-06T14:59:06;6.59;80.53
83660;SHT30;73632;50.808;3.422;2024-01-06T15:01:32;6.59;79.88
83660;SHT30;73632;50.808;3.422;2024-01-06T15:03:57;6.43;80.60
83660;SHT30;73632;50.808;3.422;2024-01-06T15:06:23;6.48;80.50
83660;SHT30;73632;50.808;3.422;2024-01-06T15:08:48;6.50;79.87
83660;SHT30;73632;50.808;3.422;2024-01-06T15:11:14;6.45;80.00
83660;SHT30;73632;50.808;3.422;2024-01-06T15:13:39;6.38;80.50
83660;SHT30;73632;50.808;3.422;2024-01-06T15:16:05;6.39;80.29
83660;SHT30;73632;50.808;3.422;2024-01-06T15:18:32;6.39;80.44
83660;SHT30;73632;50.808;3.422;2024-01-06T15:20:57;6.36;80.25
83660;SHT30;73632;50.808;3.422;2024-01-06T15:23:24;6.26;80.58
83660;SHT30;73632;50.808;3.422;2024-01-06T15:25:49;6.24;81.34
83660;SHT30;73632;50.808;3.422;2024-01-06T15:28:15;6.18;80.13
83660;SHT30;73632;50.808;3.422;2024-01-06T15:30:41;6.09;80.74
83660;SHT30;73632;50.808;3.422;2024-01-06T15:33:06;6.04;80.80
83660;SHT30;73632;50.808;3.422;2024-01-06T15:35:32;6.02;81.79
83660;SHT30;73632;50.808;3.422;2024-01-06T15:37:58;5.98;81.59
83660;SHT30;73632;50.808;3.422;2024-01-06T15:40:24;6.01;82.21